createdAt,value
2019-01-26T00:00:44.608Z,91.61
2019-01-26T00:03:15.856Z,91.59
2019-01-26T00:05:46.747Z,91.62
2019-01-26T00:08:17.643Z,91.59
2019-01-26T00:10:48.559Z,91.47
2019-01-26T00:13:19.455Z,91.41
2019-01-26T00:15:50.473Z,91.39
2019-01-26T00:18:21.695Z,91.51
2019-01-26T00:20:52.579Z,91.66
2019-01-26T00:23:23.510Z,91.65
2019-01-26T00:25:54.487Z,91.67
2019-01-26T00:28:25.716Z,91.62
2019-01-26T00:30:56.671Z,91.72
2019-01-26T00:33:27.573Z,91.66
2019-01-26T00:35:58.783Z,91.66
2019-01-26T00:38:29.755Z,91.76
2019-01-26T00:41:00.785Z,91.81
2019-01-26T00:43:31.687Z,91.94
2019-01-26T00:46:02.582Z,92.06
2019-01-26T00:48:33.553Z,92.09
2019-01-26T00:51:04.686Z,92.22
2019-01-26T00:53:35.695Z,92.34
2019-01-26T00:56:06.762Z,92.50
2019-01-26T00:58:37.660Z,92.66
2019-01-26T01:01:08.578Z,92.82
2019-01-26T01:03:39.544Z,92.94
2019-01-26T01:06:10.517Z,92.95
2019-01-26T01:08:41.419Z,93.04
2019-01-26T01:11:12.494Z,93.07
2019-01-26T01:13:43.696Z,93.12
2019-01-26T01:16:14.582Z,93.18
2019-01-26T01:18:45.555Z,93.21
2019-01-26T01:21:16.489Z,93.34
2019-01-26T01:23:47.689Z,93.32
2019-01-26T01:26:18.612Z,93.48
2019-01-26T01:28:49.503Z,93.58
2019-01-26T01:31:20.446Z,93.56
2019-01-26T01:33:51.444Z,93.65
2019-01-26T01:36:22.404Z,93.76
2019-01-26T01:38:53.336Z,93.88
2019-01-26T01:41:24.535Z,93.97
2019-01-26T01:43:55.575Z,93.96
2019-01-26T01:46:26.547Z,94.00
2019-01-26T01:48:57.421Z,93.99
2019-01-26T01:51:28.734Z,94.05
2019-01-26T01:54:00.212Z,94.12
2019-01-26T01:56:31.471Z,94.12
2019-01-26T01:59:02.403Z,94.15
2019-01-26T02:01:33.360Z,94.23
2019-01-26T02:04:04.572Z,94.34
2019-01-26T02:06:35.549Z,94.45
2019-01-26T02:09:09.573Z,94.58
2019-01-26T02:11:40.915Z,94.70
2019-01-26T02:14:12.186Z,94.76
2019-01-26T02:16:49.926Z,94.73
2019-01-26T02:19:15.996Z,94.75
2019-01-26T02:21:46.952Z,94.74
2019-01-26T02:24:17.848Z,94.80
2019-01-26T02:26:48.769Z,94.88
2019-01-26T02:29:19.781Z,95.07
2019-01-26T02:31:50.736Z,95.23
2019-01-26T02:34:21.971Z,95.23
2019-01-26T02:36:53.239Z,95.33
2019-01-26T02:39:24.497Z,95.32
2019-01-26T02:41:55.380Z,95.31
2019-01-26T02:44:26.626Z,95.37
2019-01-26T02:46:58.081Z,95.43
2019-01-26T02:49:29.337Z,95.55
2019-01-26T02:52:00.333Z,95.57
2019-01-26T02:54:31.271Z,95.59
2019-01-26T02:57:02.282Z,95.56
2019-01-26T02:59:33.295Z,95.46
2019-01-26T03:02:04.997Z,95.48
2019-01-26T03:04:35.957Z,95.47
2019-01-26T03:07:07.468Z,95.42
2019-01-26T03:09:38.393Z,95.61
2019-01-26T03:12:09.407Z,95.61
2019-01-26T03:14:40.309Z,95.60
2019-01-26T03:17:11.339Z,95.56
2019-01-26T03:19:42.361Z,95.34
2019-01-26T03:22:13.654Z,95.36
2019-01-26T03:24:44.577Z,95.30
2019-01-26T03:27:15.563Z,95.31
2019-01-26T03:29:46.565Z,95.39
2019-01-26T03:32:17.487Z,95.51
2019-01-26T03:34:48.408Z,95.33
2019-01-26T03:37:19.338Z,95.42
2019-01-26T03:39:50.309Z,95.54
2019-01-26T03:42:21.234Z,95.55
2019-01-26T03:44:52.133Z,95.69
2019-01-26T03:47:23.137Z,95.76
2019-01-26T03:49:54.085Z,95.75
2019-01-26T03:52:25.027Z,95.84
2019-01-26T03:54:55.979Z,96.02
2019-01-26T03:57:26.985Z,96.16
2019-01-26T03:59:58.370Z,96.22
2019-01-26T04:02:29.321Z,96.29
2019-01-26T04:05:00.904Z,96.20
2019-01-26T04:07:31.972Z,96.29
2019-01-26T04:10:03.179Z,96.41
2019-01-26T04:12:34.130Z,96.53
2019-01-26T04:15:05.672Z,96.55
2019-01-26T04:17:36.874Z,96.52
2019-01-26T04:20:09.995Z,96.48
2019-01-26T04:22:41.039Z,96.42
2019-01-26T04:25:12.103Z,96.46
2019-01-26T04:27:43.069Z,96.51
2019-01-26T04:30:18.068Z,96.62
2019-01-26T04:32:49.180Z,96.78
2019-01-26T04:35:20.104Z,97.00
2019-01-26T04:37:51.066Z,97.15
2019-01-26T04:40:22.045Z,97.31
2019-01-26T04:42:52.973Z,97.41
2019-01-26T04:45:25.284Z,97.52
2019-01-26T04:47:56.165Z,97.56
2019-01-26T04:50:27.090Z,97.68
2019-01-26T04:52:58.059Z,97.77
2019-01-26T04:55:28.986Z,97.89
2019-01-26T04:57:59.943Z,97.96
2019-01-26T05:00:31.344Z,97.99
2019-01-26T05:03:02.534Z,98.04
2019-01-26T05:05:33.513Z,98.04
2019-01-26T05:08:04.873Z,98.10
2019-01-26T05:10:35.874Z,98.11
2019-01-26T05:13:06.815Z,98.19
2019-01-26T05:15:38.052Z,98.24
2019-01-26T05:18:09.018Z,98.33
2019-01-26T05:20:39.933Z,98.36
2019-01-26T05:23:10.936Z,98.46
2019-01-26T05:25:41.836Z,98.56
2019-01-26T05:28:13.039Z,98.62
2019-01-26T05:30:44.044Z,98.69
2019-01-26T05:33:14.978Z,98.75
2019-01-26T05:35:45.906Z,98.82
2019-01-26T05:38:16.792Z,98.84
2019-01-26T05:40:47.693Z,98.90
2019-01-26T05:43:18.623Z,98.94
2019-01-26T05:45:49.553Z,98.98
2019-01-26T05:48:20.519Z,99.03
2019-01-26T05:50:51.406Z,99.07
2019-01-26T05:53:22.612Z,99.18
2019-01-26T05:55:53.553Z,99.29
2019-01-26T05:58:24.491Z,99.21
2019-01-26T06:00:55.798Z,99.15
2019-01-26T06:03:26.709Z,99.21
2019-01-26T06:05:57.620Z,99.24
2019-01-26T06:08:28.547Z,99.21
2019-01-26T06:10:59.506Z,99.29
2019-01-26T06:13:30.457Z,99.36
2019-01-26T06:16:01.351Z,99.44
2019-01-26T06:18:32.254Z,99.53
2019-01-26T06:21:03.218Z,99.71
2019-01-26T06:23:34.475Z,99.83
2019-01-26T06:26:05.547Z,99.96
2019-01-26T06:28:36.461Z,100.00
2019-01-26T06:31:07.387Z,100.00
2019-01-26T06:33:38.302Z,100.00
2019-01-26T06:36:09.230Z,100.00
2019-01-26T06:38:40.241Z,100.00
2019-01-26T06:41:11.210Z,100.00
2019-01-26T06:43:42.099Z,100.00
2019-01-26T06:46:13.017Z,100.00
2019-01-26T06:48:44.818Z,100.00
2019-01-26T06:51:15.729Z,100.00
2019-01-26T06:53:46.700Z,100.00
2019-01-26T06:56:18.572Z,100.00
2019-01-26T06:58:49.870Z,100.00
2019-01-26T07:01:20.827Z,100.00
2019-01-26T07:03:51.773Z,100.00
2019-01-26T07:06:34.148Z,100.00
2019-01-26T07:09:08.563Z,100.00
2019-01-26T07:11:39.573Z,100.00
2019-01-26T07:14:11.093Z,100.00
2019-01-26T07:16:42.065Z,100.00
2019-01-26T07:19:13.003Z,100.00
2019-01-26T07:21:43.910Z,100.00
2019-01-26T07:24:14.813Z,100.00
2019-01-26T07:26:45.788Z,100.00
2019-01-26T07:29:16.970Z,100.00
2019-01-26T07:31:47.855Z,99.97
2019-01-26T07:34:18.859Z,99.93
2019-01-26T07:36:49.820Z,99.95
2019-01-26T07:39:20.771Z,99.96
2019-01-26T07:41:51.729Z,99.92
2019-01-26T07:44:22.922Z,99.91
2019-01-26T07:46:53.846Z,99.98
2019-01-26T07:49:24.827Z,100.00
2019-01-26T07:51:56.012Z,100.00
2019-01-26T07:54:26.953Z,100.00
2019-01-26T07:56:57.885Z,100.00
2019-01-26T07:59:28.792Z,100.00
2019-01-26T08:01:59.731Z,100.00
2019-01-26T08:04:30.713Z,100.00
2019-01-26T08:07:01.618Z,100.00
2019-01-26T08:09:32.510Z,100.00
2019-01-26T08:12:03.570Z,100.00
2019-01-26T08:14:34.490Z,100.00
2019-01-26T08:17:05.370Z,100.00
2019-01-26T08:19:36.341Z,100.00
2019-01-26T08:22:07.242Z,100.00
2019-01-26T08:24:38.192Z,100.00
2019-01-26T08:27:09.158Z,100.00
2019-01-26T08:29:40.070Z,100.00
2019-01-26T08:32:10.955Z,100.00
2019-01-26T08:34:42.213Z,100.00
2019-01-26T08:37:13.118Z,100.00
2019-01-26T08:39:44.101Z,100.00
2019-01-26T08:42:15.349Z,100.00
2019-01-26T08:44:46.273Z,100.00
2019-01-26T08:47:17.234Z,100.00
2019-01-26T08:49:48.491Z,100.00
2019-01-26T08:52:19.757Z,100.00
2019-01-26T08:54:50.669Z,100.00
2019-01-26T08:57:21.648Z,100.00
2019-01-26T08:59:52.596Z,100.00
2019-01-26T09:02:42.421Z,100.00
2019-01-26T09:05:15.503Z,100.00
2019-01-26T09:07:46.567Z,100.00
2019-01-26T09:10:17.497Z,100.00
2019-01-26T09:12:48.405Z,100.00
2019-01-26T09:15:19.376Z,100.00
2019-01-26T09:17:50.336Z,100.00
2019-01-26T09:20:22.477Z,100.00
2019-01-26T09:22:53.481Z,100.00
2019-01-26T09:25:24.489Z,100.00
2019-01-26T09:27:55.715Z,100.00
2019-01-26T09:30:26.697Z,100.00
2019-01-26T09:32:57.581Z,100.00
2019-01-26T09:35:28.496Z,100.00
2019-01-26T09:37:59.503Z,100.00
2019-01-26T09:40:30.487Z,100.00
2019-01-26T09:43:01.401Z,100.00
2019-01-26T09:45:32.770Z,100.00
2019-01-26T09:48:03.980Z,100.00
2019-01-26T09:50:35.263Z,100.00
2019-01-26T09:53:07.128Z,100.00
2019-01-26T09:55:38.050Z,99.99
2019-01-26T09:58:09.020Z,99.69
2019-01-26T10:00:39.967Z,99.45
2019-01-26T10:03:10.940Z,99.27
2019-01-26T10:05:41.836Z,98.97
2019-01-26T10:08:12.891Z,98.71
2019-01-26T10:10:43.906Z,98.60
2019-01-26T10:13:15.008Z,98.61
2019-01-26T10:15:45.941Z,98.52
2019-01-26T10:18:16.857Z,98.41
2019-01-26T10:20:47.772Z,98.20
2019-01-26T10:23:18.717Z,98.13
2019-01-26T10:25:50.041Z,98.08
2019-01-26T10:28:21.074Z,98.00
2019-01-26T10:31:01.371Z,98.02
2019-01-26T10:33:32.489Z,98.05
2019-01-26T10:36:22.295Z,97.97
2019-01-26T10:39:03.923Z,97.99
2019-01-26T10:42:05.868Z,97.85
2019-01-26T10:44:38.516Z,97.75
2019-01-26T10:47:10.264Z,97.43
2019-01-26T10:49:41.175Z,97.38
2019-01-26T10:52:12.218Z,97.15
2019-01-26T10:54:43.259Z,97.13
2019-01-26T10:57:14.208Z,97.03
2019-01-26T10:59:45.467Z,97.09
2019-01-26T11:02:16.886Z,97.00
2019-01-26T11:04:48.001Z,96.86
2019-01-26T11:07:18.999Z,96.83
2019-01-26T11:09:50.260Z,96.76
2019-01-26T11:12:21.242Z,96.77
2019-01-26T11:14:52.213Z,96.70
2019-01-26T11:17:23.453Z,96.54
2019-01-26T11:19:54.366Z,96.58
2019-01-26T11:22:25.622Z,96.74
2019-01-26T11:24:56.522Z,96.64
2019-01-26T11:27:27.448Z,96.59
2019-01-26T11:29:58.411Z,96.60
2019-01-26T11:32:29.385Z,96.51
2019-01-26T11:35:00.684Z,96.64
2019-01-26T11:37:31.629Z,96.64
2019-01-26T11:40:15.805Z,96.64
2019-01-26T11:42:46.995Z,96.59
2019-01-26T11:45:40.382Z,96.67
2019-01-26T11:48:23.461Z,96.74
2019-01-26T11:51:02.628Z,96.71
2019-01-26T11:53:33.528Z,96.63
2019-01-26T11:56:22.160Z,96.72
2019-01-26T11:58:53.179Z,96.67
2019-01-26T12:01:37.479Z,96.58
2019-01-26T12:04:18.082Z,96.76
2019-01-26T12:06:57.070Z,96.98
2019-01-26T12:09:28.265Z,97.15
2019-01-26T12:11:59.272Z,97.03
2019-01-26T12:14:30.537Z,96.88
2019-01-26T12:17:01.829Z,96.82
2019-01-26T12:19:32.832Z,96.78
2019-01-26T12:22:03.768Z,96.75
2019-01-26T12:24:35.118Z,96.67
2019-01-26T12:27:06.495Z,96.52
2019-01-26T12:29:38.016Z,96.49
2019-01-26T12:32:09.019Z,96.47
2019-01-26T12:34:40.300Z,96.41
2019-01-26T12:37:11.262Z,96.39
2019-01-26T12:39:42.828Z,96.17
2019-01-26T12:42:13.721Z,95.99
2019-01-26T12:44:45.386Z,95.83
2019-01-26T12:47:17.143Z,95.62
2019-01-26T12:49:48.232Z,95.38
2019-01-26T12:52:19.429Z,95.37
2019-01-26T12:54:50.827Z,95.50
2019-01-26T12:57:21.861Z,95.40
2019-01-26T12:59:53.104Z,95.38
2019-01-26T13:02:24.075Z,95.54
2019-01-26T13:04:55.117Z,95.66
2019-01-26T13:07:26.034Z,95.82
2019-01-26T13:09:57.316Z,95.76
2019-01-26T13:12:29.172Z,95.94
2019-01-26T13:15:02.643Z,95.82
2019-01-26T13:17:33.579Z,95.74
2019-01-26T13:20:06.719Z,95.81
2019-01-26T13:22:37.690Z,95.78
2019-01-26T13:25:10.060Z,95.67
2019-01-26T13:27:41.293Z,95.53
2019-01-26T13:30:16.996Z,95.41
2019-01-26T13:32:48.565Z,95.39
2019-01-26T13:35:21.069Z,95.44
2019-01-26T13:37:52.082Z,95.62
2019-01-26T13:40:23.194Z,95.64
2019-01-26T13:42:54.532Z,95.46
2019-01-26T13:45:25.566Z,95.29
2019-01-26T13:47:57.051Z,95.24
2019-01-26T13:50:28.018Z,95.30
2019-01-26T13:53:00.061Z,95.35
2019-01-26T13:55:30.976Z,95.34
2019-01-26T13:58:01.967Z,95.55
2019-01-26T14:00:33.489Z,95.63
2019-01-26T14:03:04.973Z,95.56
2019-01-26T14:05:36.078Z,95.69
2019-01-26T14:08:07.424Z,95.69
2019-01-26T14:10:38.347Z,95.45
2019-01-26T14:13:09.659Z,95.38
2019-01-26T14:15:40.603Z,95.39
2019-01-26T14:18:11.550Z,95.55
2019-01-26T14:20:42.876Z,95.81
2019-01-26T14:23:13.814Z,95.86
2019-01-26T14:25:44.771Z,96.05
2019-01-26T14:28:15.723Z,96.12
2019-01-26T14:30:52.438Z,96.14
2019-01-26T14:33:23.485Z,96.26
2019-01-26T14:35:54.486Z,96.47
2019-01-26T14:38:25.992Z,96.54
2019-01-26T14:40:57.310Z,96.64
2019-01-26T14:43:30.438Z,96.77
2019-01-26T14:46:01.462Z,96.95
2019-01-26T14:48:32.425Z,97.12
2019-01-26T14:51:04.115Z,97.25
2019-01-26T14:53:35.564Z,97.25
2019-01-26T14:56:07.076Z,97.43
2019-01-26T14:58:39.718Z,97.57
2019-01-26T15:01:11.860Z,97.62
2019-01-26T15:03:43.083Z,97.61
2019-01-26T15:06:13.990Z,97.53
2019-01-26T15:08:45.046Z,97.54
2019-01-26T15:11:15.927Z,97.63
2019-01-26T15:13:46.914Z,97.68
2019-01-26T15:16:17.886Z,97.65
2019-01-26T15:18:48.843Z,97.67
2019-01-26T15:21:20.058Z,97.67
2019-01-26T15:23:51.513Z,97.65
2019-01-26T15:26:22.489Z,97.71
2019-01-26T15:28:54.427Z,97.63
2019-01-26T15:31:25.566Z,97.68
2019-01-26T15:33:57.673Z,97.84
2019-01-26T15:36:29.029Z,97.79
2019-01-26T15:39:00.294Z,97.91
2019-01-26T15:41:33.444Z,98.00
2019-01-26T15:44:04.343Z,98.09
2019-01-26T15:46:35.332Z,98.30
2019-01-26T15:49:06.272Z,98.33
2019-01-26T15:51:37.284Z,98.30
2019-01-26T15:54:08.258Z,98.38
2019-01-26T15:56:39.190Z,98.23
2019-01-26T15:59:10.924Z,98.16
2019-01-26T16:01:41.891Z,98.04
2019-01-26T16:04:12.860Z,97.99
2019-01-26T16:06:44.103Z,97.88
2019-01-26T16:09:15.370Z,97.77
2019-01-26T16:11:49.102Z,97.89
2019-01-26T16:14:20.184Z,97.88
2019-01-26T16:16:51.696Z,97.74
2019-01-26T16:19:22.696Z,97.69
2019-01-26T16:21:53.749Z,97.81
2019-01-26T16:24:24.702Z,97.71
2019-01-26T16:26:55.702Z,97.74
2019-01-26T16:29:26.722Z,97.69
2019-01-26T16:31:57.942Z,97.55
2019-01-26T16:34:29.341Z,97.40
2019-01-26T16:37:02.126Z,97.36
2019-01-26T16:39:33.373Z,97.26
2019-01-26T16:42:04.816Z,97.21
2019-01-26T16:44:38.634Z,97.06
2019-01-26T16:47:09.718Z,97.06
2019-01-26T16:49:41.422Z,97.06
2019-01-26T16:52:14.067Z,97.05
2019-01-26T16:54:45.159Z,97.09
2019-01-26T16:57:16.505Z,97.07
2019-01-26T16:59:47.429Z,96.95
2019-01-26T17:02:18.347Z,96.83
2019-01-26T17:04:49.443Z,96.74
2019-01-26T17:07:20.411Z,96.64
2019-01-26T17:09:51.305Z,96.65
2019-01-26T17:12:22.462Z,96.68
2019-01-26T17:14:53.382Z,96.68
2019-01-26T17:17:24.281Z,96.64
2019-01-26T17:19:55.268Z,96.55
2019-01-26T17:22:26.179Z,96.28
2019-01-26T17:24:57.121Z,96.04
2019-01-26T17:27:28.460Z,95.77
2019-01-26T17:29:59.384Z,95.44
2019-01-26T17:32:30.391Z,95.19
2019-01-26T17:35:01.985Z,94.67
2019-01-26T17:37:32.938Z,94.78
2019-01-26T17:40:04.100Z,94.61
2019-01-26T17:42:35.047Z,94.30
2019-01-26T17:45:07.337Z,94.13
2019-01-26T17:47:38.267Z,94.03
2019-01-26T17:50:13.423Z,93.95
2019-01-26T17:52:44.343Z,94.19
2019-01-26T17:55:15.500Z,94.41
2019-01-26T17:57:46.637Z,94.36
2019-01-26T18:00:33.214Z,94.01
2019-01-26T18:03:04.303Z,93.70
2019-01-26T18:05:35.335Z,93.57
2019-01-26T18:08:06.492Z,93.51
2019-01-26T18:10:37.474Z,93.79
2019-01-26T18:13:08.849Z,94.11
2019-01-26T18:15:39.766Z,94.18
2019-01-26T18:18:10.823Z,94.25
2019-01-26T18:20:42.060Z,94.46
2019-01-26T18:23:15.214Z,94.59
2019-01-26T18:25:47.392Z,94.75
2019-01-26T18:28:18.518Z,94.58
2019-01-26T18:30:50.261Z,94.50
2019-01-26T18:33:21.210Z,94.35
2019-01-26T18:35:53.941Z,94.51
2019-01-26T18:38:24.907Z,94.62
2019-01-26T18:40:56.439Z,94.62
2019-01-26T18:43:27.440Z,94.37
2019-01-26T18:45:58.966Z,94.09
2019-01-26T18:48:29.915Z,93.80
2019-01-26T18:51:00.888Z,93.95
2019-01-26T18:53:31.851Z,93.61
2019-01-26T18:56:02.781Z,93.47
2019-01-26T18:58:34.400Z,93.43
2019-01-26T19:01:06.830Z,93.04
2019-01-26T19:04:10.351Z,92.79
2019-01-26T19:06:41.341Z,92.82
2019-01-26T19:09:13.873Z,92.99
2019-01-26T19:11:45.939Z,93.10
2019-01-26T19:14:16.906Z,93.27
2019-01-26T19:16:48.283Z,93.08
2019-01-26T19:19:19.271Z,92.86
2019-01-26T19:21:52.202Z,92.81
2019-01-26T19:24:23.200Z,92.62
2019-01-26T19:26:54.452Z,92.44
2019-01-26T19:29:25.363Z,92.53
2019-01-26T19:31:56.319Z,92.43
2019-01-26T19:34:27.292Z,92.32
2019-01-26T19:36:58.900Z,92.24
2019-01-26T19:39:29.948Z,92.14
2019-01-26T19:42:01.181Z,92.15
2019-01-26T19:44:32.546Z,92.19
2019-01-26T19:47:06.417Z,92.39
2019-01-26T19:49:37.921Z,92.69
2019-01-26T19:52:09.330Z,92.65
2019-01-26T19:54:41.450Z,92.57
2019-01-26T19:57:13.054Z,92.36
2019-01-26T19:59:44.311Z,92.03
2019-01-26T20:02:15.676Z,91.77
2019-01-26T20:04:47.258Z,91.56
2019-01-26T20:07:18.565Z,91.15
2019-01-26T20:09:49.615Z,90.92
2019-01-26T20:12:21.989Z,90.57
2019-01-26T20:14:53.254Z,90.51
2019-01-26T20:17:24.328Z,90.51
2019-01-26T20:19:55.556Z,90.66
2019-01-26T20:22:26.892Z,90.55
2019-01-26T20:24:58.166Z,90.37
2019-01-26T20:27:29.161Z,90.45
2019-01-26T20:30:00.227Z,90.34
2019-01-26T20:32:31.659Z,90.35
2019-01-26T20:35:02.660Z,90.58
2019-01-26T20:37:34.527Z,90.80
2019-01-26T20:40:07.097Z,90.78
2019-01-26T20:42:38.129Z,90.75
2019-01-26T20:45:16.626Z,90.47
2019-01-26T20:47:48.208Z,90.54
2019-01-26T20:50:19.294Z,90.21
2019-01-26T20:52:50.352Z,90.32
2019-01-26T20:55:21.289Z,90.26
2019-01-26T20:57:52.254Z,89.87
2019-01-26T21:00:29.832Z,89.59
2019-01-26T21:03:00.923Z,89.80
2019-01-26T21:05:31.934Z,90.17
2019-01-26T21:08:04.169Z,90.42
2019-01-26T21:10:35.519Z,90.68
2019-01-26T21:13:06.935Z,91.14
2019-01-26T21:15:37.904Z,91.45
2019-01-26T21:18:09.186Z,91.34
2019-01-26T21:20:40.127Z,91.57
2019-01-26T21:23:11.714Z,91.62
2019-01-26T21:25:43.614Z,91.79
2019-01-26T21:28:14.584Z,92.03
2019-01-26T21:30:45.507Z,92.38
2019-01-26T21:33:16.768Z,92.83
2019-01-26T21:35:49.949Z,93.15
2019-01-26T21:38:20.900Z,93.00
2019-01-26T21:40:51.902Z,92.87
2019-01-26T21:43:23.356Z,92.90
2019-01-26T21:45:54.344Z,92.92
2019-01-26T21:48:25.314Z,92.71
2019-01-26T21:50:56.911Z,92.68
2019-01-26T21:53:30.026Z,92.45
2019-01-26T21:56:01.317Z,92.38
2019-01-26T21:58:32.285Z,92.33
2019-01-26T22:01:03.294Z,92.23
2019-01-26T22:03:34.298Z,91.98
2019-01-26T22:06:05.504Z,91.99
2019-01-26T22:08:36.714Z,91.73
2019-01-26T22:11:07.786Z,91.42
2019-01-26T22:13:38.785Z,91.17
2019-01-26T22:16:10.391Z,90.95
2019-01-26T22:18:41.466Z,91.10
2019-01-26T22:21:12.423Z,91.25
2019-01-26T22:23:43.425Z,91.00
2019-01-26T22:26:14.496Z,90.76
2019-01-26T22:28:45.417Z,91.13
2019-01-26T22:31:16.351Z,90.90
2019-01-26T22:33:47.308Z,90.79
2019-01-26T22:36:19.177Z,90.95
2019-01-26T22:38:51.319Z,90.89
2019-01-26T22:41:22.554Z,90.75
2019-01-26T22:43:53.651Z,90.36
2019-01-26T22:46:24.645Z,90.18
2019-01-26T22:48:55.546Z,90.16
2019-01-26T22:51:26.466Z,90.16
2019-01-26T22:53:57.478Z,90.22
2019-01-26T22:56:28.449Z,90.29
2019-01-26T22:58:59.457Z,90.23
2019-01-26T23:01:35.494Z,90.06
2019-01-26T23:05:21.354Z,90.18
2019-01-26T23:08:10.805Z,90.33
2019-01-26T23:11:14.789Z,90.56
2019-01-26T23:14:39.368Z,90.16
2019-01-26T23:18:01.207Z,90.15
2019-01-26T23:21:15.989Z,90.34
2019-01-26T23:24:41.716Z,90.13
2019-01-26T23:27:40.746Z,89.88
2019-01-26T23:31:15.652Z,89.81
2019-01-26T23:33:48.189Z,89.76
2019-01-26T23:36:19.417Z,89.86
2019-01-26T23:38:50.402Z,89.87
2019-01-26T23:41:21.762Z,90.08
2019-01-26T23:43:52.676Z,89.97
2019-01-26T23:46:23.765Z,89.99
2019-01-26T23:48:54.760Z,89.83
2019-01-26T23:51:25.721Z,89.74
2019-01-26T23:53:56.754Z,89.67
2019-01-26T23:56:27.727Z,89.96
2019-01-26T23:58:58.732Z,90.08
